SWR4K EDDG-LOWI
Flight info
| Callsign | SWR4K |
|---|---|
| Flight time | 1h 6m |
| Altitude | 31000 |
| Route | DOMEG1E/07 DOMEG Z841 GMH Q603 TESGA L603 BOMBI T104 WLD M867 BAVAX Z106 MANAL M736 TULSI TULSI3A |
| Aircraft | A21N/M-SDE3FGHIRWY/LB1 |
Departure
| Time | 2026-05-08 18:07 |
|---|---|
| Airport | Münster Osnabrück Airport (EDDG) |
Arrival
| Time | 2026-05-08 19:14 |
|---|---|
| Airport | Innsbruck Airport (LOWI) |
| Time | Latitude | Longitude | Altitude | Speed | Heading |
|---|---|---|---|---|---|
| 2026-05-08 17:38 | 52.13170 | 7.69372 | 163 ft | 0 kts | 197° |
| 2026-05-08 17:56 | 52.13169 | 7.69372 | 163 ft | 0 kts | 198° |
| 2026-05-08 17:57 | 52.13166 | 7.69366 | 163 ft | 0 kts | 243° |
| 2026-05-08 17:57 | 52.13168 | 7.69357 | 163 ft | 1 kts | 303° |
| 2026-05-08 17:57 | 52.13180 | 7.69345 | 163 ft | 2 kts | 334° |
| 2026-05-08 17:57 | 52.13203 | 7.69326 | 163 ft | 4 kts | 329° |
| 2026-05-08 17:58 | 52.13215 | 7.69277 | 163 ft | 5 kts | 266° |
| 2026-05-08 17:58 | 52.13201 | 7.69201 | 163 ft | 7 kts | 252° |
| 2026-05-08 17:58 | 52.13181 | 7.69105 | 163 ft | 9 kts | 251° |
| 2026-05-08 17:58 | 52.13161 | 7.68993 | 163 ft | 10 kts | 271° |
| 2026-05-08 17:59 | 52.13219 | 7.68920 | 163 ft | 12 kts | 343° |
| 2026-05-08 17:59 | 52.13307 | 7.68869 | 163 ft | 14 kts | 340° |
| 2026-05-08 17:59 | 52.13345 | 7.68744 | 161 ft | 15 kts | 250° |
| 2026-05-08 17:59 | 52.13308 | 7.68575 | 160 ft | 16 kts | 251° |
| 2026-05-08 18:00 | 52.13270 | 7.68402 | 160 ft | 16 kts | 250° |
| 2026-05-08 18:00 | 52.13199 | 7.68059 | 160 ft | 15 kts | 251° |
| 2026-05-08 18:00 | 52.13163 | 7.67890 | 160 ft | 15 kts | 251° |
| 2026-05-08 18:01 | 52.13127 | 7.67722 | 160 ft | 15 kts | 251° |
| 2026-05-08 18:01 | 52.13098 | 7.67583 | 160 ft | 10 kts | 251° |
| 2026-05-08 18:01 | 52.13073 | 7.67469 | 160 ft | 10 kts | 251° |
| 2026-05-08 18:01 | 52.13049 | 7.67351 | 160 ft | 11 kts | 251° |
| 2026-05-08 18:02 | 52.13026 | 7.67224 | 160 ft | 11 kts | 267° |
| 2026-05-08 18:02 | 52.13039 | 7.67136 | 160 ft | 10 kts | 300° |
| 2026-05-08 18:02 | 52.13055 | 7.67101 | 160 ft | 0 kts | 311° |
| 2026-05-08 18:05 | 52.13057 | 7.67097 | 160 ft | 1 kts | 312° |
| 2026-05-08 18:05 | 52.13076 | 7.67072 | 160 ft | 6 kts | 328° |
| 2026-05-08 18:05 | 52.13133 | 7.67037 | 160 ft | 9 kts | 359° |
| 2026-05-08 18:05 | 52.13166 | 7.67079 | 161 ft | 0 kts | 66° |
| 2026-05-08 18:06 | 52.13166 | 7.67080 | 161 ft | 0 kts | 71° |
| 2026-05-08 18:07 | 52.13203 | 7.67256 | 164 ft | 51 kts | 71° |
| 2026-05-08 18:07 | 52.13402 | 7.68186 | 160 ft | 121 kts | 71° |
| 2026-05-08 18:07 | 52.13735 | 7.69772 | 232 ft | 168 kts | 73° |
| 2026-05-08 18:07 | 52.14103 | 7.71574 | 845 ft | 169 kts | 71° |
| 2026-05-08 18:08 | 52.14473 | 7.73347 | 1582 ft | 168 kts | 73° |
| 2026-05-08 18:08 | 52.14838 | 7.75118 | 2224 ft | 165 kts | 74° |
| 2026-05-08 18:08 | 52.15213 | 7.76945 | 2502 ft | 178 kts | 73° |
| 2026-05-08 18:08 | 52.15575 | 7.78972 | 2748 ft | 195 kts | 85° |
| 2026-05-08 18:09 | 52.15350 | 7.81182 | 3038 ft | 210 kts | 113° |
| 2026-05-08 18:09 | 52.14371 | 7.83102 | 3220 ft | 235 kts | 146° |
| 2026-05-08 18:09 | 52.12826 | 7.84163 | 3604 ft | 251 kts | 160° |
| 2026-05-08 18:09 | 52.11129 | 7.85080 | 4109 ft | 263 kts | 161° |
| 2026-05-08 18:10 | 52.09327 | 7.85409 | 4765 ft | 266 kts | 189° |
| 2026-05-08 18:10 | 52.07563 | 7.84482 | 5525 ft | 267 kts | 204° |
| 2026-05-08 18:10 | 52.05882 | 7.83235 | 6274 ft | 268 kts | 205° |
| 2026-05-08 18:10 | 52.04176 | 7.82010 | 6964 ft | 271 kts | 204° |
| 2026-05-08 18:11 | 52.02449 | 7.80796 | 7644 ft | 273 kts | 203° |
| 2026-05-08 18:11 | 52.00717 | 7.79593 | 8321 ft | 276 kts | 203° |
| 2026-05-08 18:11 | 51.98949 | 7.78360 | 8941 ft | 279 kts | 203° |
| 2026-05-08 18:11 | 51.97158 | 7.77103 | 9536 ft | 284 kts | 203° |
| 2026-05-08 18:12 | 51.95345 | 7.75828 | 10134 ft | 287 kts | 203° |
| 2026-05-08 18:12 | 51.93509 | 7.74536 | 10587 ft | 296 kts | 203° |
| 2026-05-08 18:12 | 51.91568 | 7.73172 | 10862 ft | 311 kts | 203° |
| 2026-05-08 18:12 | 51.89532 | 7.71739 | 11131 ft | 325 kts | 204° |
| 2026-05-08 18:13 | 51.87415 | 7.70249 | 11395 ft | 339 kts | 204° |
| 2026-05-08 18:13 | 51.85215 | 7.68702 | 11643 ft | 353 kts | 204° |
| 2026-05-08 18:13 | 51.82918 | 7.67089 | 11964 ft | 363 kts | 204° |
| 2026-05-08 18:13 | 51.80598 | 7.65460 | 12485 ft | 366 kts | 204° |
| 2026-05-08 18:14 | 51.78258 | 7.63820 | 13036 ft | 368 kts | 204° |
| 2026-05-08 18:14 | 51.75913 | 7.62179 | 13524 ft | 371 kts | 204° |
| 2026-05-08 18:14 | 51.73529 | 7.60536 | 14037 ft | 374 kts | 202° |
| 2026-05-08 18:14 | 51.70998 | 7.59654 | 14517 ft | 379 kts | 184° |
| 2026-05-08 18:15 | 51.68348 | 7.60126 | 15018 ft | 382 kts | 166° |
| 2026-05-08 18:15 | 51.65832 | 7.61505 | 15522 ft | 384 kts | 161° |
| 2026-05-08 18:15 | 51.63320 | 7.62978 | 16002 ft | 387 kts | 161° |
| 2026-05-08 18:15 | 51.60785 | 7.64461 | 16465 ft | 389 kts | 161° |
| 2026-05-08 18:16 | 51.58200 | 7.65958 | 16936 ft | 392 kts | 161° |
| 2026-05-08 18:16 | 51.55623 | 7.67436 | 17400 ft | 393 kts | 162° |
| 2026-05-08 18:16 | 51.53026 | 7.68918 | 17842 ft | 396 kts | 162° |
| 2026-05-08 18:16 | 51.50437 | 7.70389 | 18276 ft | 398 kts | 162° |
| 2026-05-08 18:17 | 51.47847 | 7.71858 | 18706 ft | 400 kts | 162° |
| 2026-05-08 18:17 | 51.45190 | 7.73362 | 19134 ft | 402 kts | 162° |
| 2026-05-08 18:17 | 51.42542 | 7.74858 | 19539 ft | 404 kts | 162° |
| 2026-05-08 18:17 | 51.39867 | 7.76367 | 19927 ft | 406 kts | 162° |
| 2026-05-08 18:18 | 51.37201 | 7.77871 | 20315 ft | 408 kts | 162° |
| 2026-05-08 18:18 | 51.34478 | 7.79406 | 20705 ft | 410 kts | 162° |
| 2026-05-08 18:18 | 51.31780 | 7.80926 | 21071 ft | 412 kts | 162° |
| 2026-05-08 18:18 | 51.29027 | 7.82475 | 21431 ft | 414 kts | 162° |
| 2026-05-08 18:19 | 51.26266 | 7.84026 | 21777 ft | 416 kts | 162° |
| 2026-05-08 18:19 | 51.23499 | 7.85579 | 22121 ft | 418 kts | 162° |
| 2026-05-08 18:19 | 51.20769 | 7.87112 | 22449 ft | 420 kts | 161° |
| 2026-05-08 18:19 | 51.18019 | 7.88892 | 22768 ft | 423 kts | 157° |
| 2026-05-08 18:20 | 51.15358 | 7.91022 | 23078 ft | 426 kts | 152° |
| 2026-05-08 18:20 | 51.12809 | 7.93476 | 23385 ft | 428 kts | 149° |
| 2026-05-08 18:20 | 51.10267 | 7.96068 | 23684 ft | 430 kts | 148° |
| 2026-05-08 18:20 | 51.07732 | 7.98665 | 23973 ft | 432 kts | 148° |
| 2026-05-08 18:21 | 51.05174 | 8.01278 | 24252 ft | 434 kts | 148° |
| 2026-05-08 18:21 | 51.02603 | 8.03892 | 24533 ft | 436 kts | 148° |
| 2026-05-08 18:21 | 51.00040 | 8.06613 | 24801 ft | 438 kts | 145° |
| 2026-05-08 18:21 | 50.97597 | 8.09567 | 25070 ft | 440 kts | 143° |
| 2026-05-08 18:22 | 50.95178 | 8.12594 | 25329 ft | 442 kts | 143° |
| 2026-05-08 18:22 | 50.92713 | 8.15675 | 25589 ft | 444 kts | 143° |
| 2026-05-08 18:22 | 50.90271 | 8.18705 | 25834 ft | 445 kts | 143° |
| 2026-05-08 18:22 | 50.87838 | 8.21706 | 26223 ft | 443 kts | 143° |
| 2026-05-08 18:23 | 50.85420 | 8.24671 | 26659 ft | 440 kts | 143° |
| 2026-05-08 18:23 | 50.83012 | 8.27612 | 26924 ft | 440 kts | 143° |
| 2026-05-08 18:23 | 50.80557 | 8.30602 | 27141 ft | 442 kts | 143° |
| 2026-05-08 18:23 | 50.78155 | 8.33520 | 27357 ft | 444 kts | 143° |
| 2026-05-08 18:24 | 50.75707 | 8.36489 | 27578 ft | 445 kts | 143° |
| 2026-05-08 18:24 | 50.73251 | 8.39463 | 27800 ft | 447 kts | 143° |
| 2026-05-08 18:24 | 50.70771 | 8.42462 | 28017 ft | 448 kts | 143° |
| 2026-05-08 18:24 | 50.68302 | 8.45443 | 28231 ft | 450 kts | 143° |
| 2026-05-08 18:25 | 50.65806 | 8.48452 | 28454 ft | 451 kts | 143° |
| 2026-05-08 18:25 | 50.63319 | 8.51447 | 28730 ft | 450 kts | 144° |
| 2026-05-08 18:25 | 50.60863 | 8.54401 | 29045 ft | 449 kts | 143° |
| 2026-05-08 18:25 | 50.58383 | 8.57380 | 29357 ft | 448 kts | 144° |
| 2026-05-08 18:26 | 50.55905 | 8.60352 | 29613 ft | 448 kts | 144° |
| 2026-05-08 18:26 | 50.53436 | 8.63308 | 29831 ft | 449 kts | 144° |
| 2026-05-08 18:26 | 50.50941 | 8.66291 | 30045 ft | 450 kts | 144° |
| 2026-05-08 18:26 | 50.48459 | 8.69255 | 30262 ft | 451 kts | 144° |
| 2026-05-08 18:27 | 50.45940 | 8.72258 | 30499 ft | 451 kts | 144° |
| 2026-05-08 18:27 | 50.44279 | 8.74237 | 30651 ft | 451 kts | 144° |
| 2026-05-08 18:27 | 50.40946 | 8.78202 | 30921 ft | 452 kts | 144° |
| 2026-05-08 18:27 | 50.38452 | 8.81164 | 31058 ft | 454 kts | 144° |
| 2026-05-08 18:28 | 50.33416 | 8.87134 | 31065 ft | 454 kts | 144° |
| 2026-05-08 18:28 | 50.28372 | 8.93097 | 31065 ft | 453 kts | 144° |
| 2026-05-08 18:29 | 50.23355 | 8.99011 | 31067 ft | 453 kts | 145° |
| 2026-05-08 18:29 | 50.18315 | 9.04937 | 31066 ft | 453 kts | 145° |
| 2026-05-08 18:30 | 50.13287 | 9.10832 | 31065 ft | 453 kts | 145° |
| 2026-05-08 18:30 | 50.08260 | 9.16711 | 31063 ft | 453 kts | 145° |
| 2026-05-08 18:31 | 50.03238 | 9.22568 | 31063 ft | 453 kts | 145° |
| 2026-05-08 18:31 | 49.98206 | 9.28422 | 31064 ft | 453 kts | 145° |
| 2026-05-08 18:32 | 49.93179 | 9.34253 | 31062 ft | 453 kts | 145° |
| 2026-05-08 18:32 | 49.88155 | 9.40067 | 31063 ft | 453 kts | 145° |
| 2026-05-08 18:33 | 49.83083 | 9.45919 | 31060 ft | 454 kts | 145° |
| 2026-05-08 18:33 | 49.78018 | 9.51746 | 31056 ft | 454 kts | 145° |
| 2026-05-08 18:34 | 49.72960 | 9.57553 | 31059 ft | 454 kts | 145° |
| 2026-05-08 18:34 | 49.67881 | 9.63365 | 31059 ft | 454 kts | 145° |
| 2026-05-08 18:35 | 49.62801 | 9.69166 | 31056 ft | 455 kts | 146° |
| 2026-05-08 18:35 | 49.57731 | 9.74940 | 31058 ft | 455 kts | 146° |
| 2026-05-08 18:36 | 49.52646 | 9.80713 | 31060 ft | 455 kts | 146° |
| 2026-05-08 18:36 | 49.47572 | 9.86459 | 31059 ft | 455 kts | 146° |
| 2026-05-08 18:37 | 49.42472 | 9.92222 | 31070 ft | 456 kts | 146° |
| 2026-05-08 18:37 | 49.37383 | 9.97956 | 31068 ft | 456 kts | 146° |
| 2026-05-08 18:38 | 49.32238 | 10.03738 | 31069 ft | 456 kts | 146° |
| 2026-05-08 18:38 | 49.27137 | 10.09458 | 31072 ft | 457 kts | 146° |
| 2026-05-08 18:39 | 49.22012 | 10.15188 | 31073 ft | 457 kts | 146° |
| 2026-05-08 18:39 | 49.16931 | 10.20921 | 31068 ft | 458 kts | 144° |
| 2026-05-08 18:40 | 49.11858 | 10.26878 | 31059 ft | 457 kts | 147° |
| 2026-05-08 18:40 | 49.06730 | 10.32474 | 31059 ft | 457 kts | 147° |
| 2026-05-08 18:41 | 49.01554 | 10.38146 | 31057 ft | 458 kts | 147° |
| 2026-05-08 18:41 | 48.96381 | 10.43841 | 31050 ft | 458 kts | 147° |
| 2026-05-08 18:42 | 48.91223 | 10.49518 | 31051 ft | 459 kts | 147° |
| 2026-05-08 18:42 | 48.86055 | 10.55198 | 31038 ft | 459 kts | 147° |
| 2026-05-08 18:43 | 48.80902 | 10.60849 | 31038 ft | 459 kts | 147° |
| 2026-05-08 18:43 | 48.75757 | 10.66475 | 31041 ft | 459 kts | 148° |
| 2026-05-08 18:44 | 48.70565 | 10.72138 | 31037 ft | 459 kts | 148° |
| 2026-05-08 18:44 | 48.65419 | 10.77737 | 31038 ft | 459 kts | 148° |
| 2026-05-08 18:45 | 48.60217 | 10.83384 | 31038 ft | 458 kts | 148° |
| 2026-05-08 18:45 | 48.55067 | 10.88958 | 31052 ft | 458 kts | 148° |
| 2026-05-08 18:46 | 48.49894 | 10.94544 | 31053 ft | 458 kts | 148° |
| 2026-05-08 18:46 | 48.44712 | 11.00124 | 31045 ft | 458 kts | 148° |
| 2026-05-08 18:47 | 48.39552 | 11.05665 | 30548 ft | 462 kts | 149° |
| 2026-05-08 18:47 | 48.36915 | 11.08488 | 29600 ft | 465 kts | 148° |
| 2026-05-08 18:47 | 48.34302 | 11.11281 | 28776 ft | 466 kts | 148° |
| 2026-05-08 18:48 | 48.31658 | 11.14105 | 27931 ft | 467 kts | 148° |
| 2026-05-08 18:48 | 48.29058 | 11.16883 | 27407 ft | 461 kts | 148° |
| 2026-05-08 18:48 | 48.26451 | 11.19667 | 26864 ft | 455 kts | 148° |
| 2026-05-08 18:48 | 48.23905 | 11.22382 | 26367 ft | 449 kts | 148° |
| 2026-05-08 18:49 | 48.21364 | 11.25087 | 25840 ft | 444 kts | 148° |
| 2026-05-08 18:49 | 48.18884 | 11.27723 | 25333 ft | 440 kts | 148° |
| 2026-05-08 18:49 | 48.16402 | 11.30357 | 24795 ft | 435 kts | 147° |
| 2026-05-08 18:49 | 48.13949 | 11.32954 | 24276 ft | 431 kts | 147° |
| 2026-05-08 18:50 | 48.11505 | 11.35542 | 23795 ft | 426 kts | 147° |
| 2026-05-08 18:50 | 48.09129 | 11.38057 | 23298 ft | 422 kts | 147° |
| 2026-05-08 18:50 | 48.06747 | 11.40573 | 22807 ft | 419 kts | 147° |
| 2026-05-08 18:50 | 48.04356 | 11.43096 | 22326 ft | 415 kts | 147° |
| 2026-05-08 18:51 | 48.02018 | 11.45559 | 21845 ft | 412 kts | 147° |
| 2026-05-08 18:51 | 47.99676 | 11.48025 | 21351 ft | 408 kts | 147° |
| 2026-05-08 18:51 | 47.97369 | 11.50450 | 20877 ft | 405 kts | 147° |
| 2026-05-08 18:51 | 47.95099 | 11.52835 | 20374 ft | 402 kts | 146° |
| 2026-05-08 18:52 | 47.92823 | 11.55223 | 19912 ft | 399 kts | 146° |
| 2026-05-08 18:52 | 47.90574 | 11.57579 | 19410 ft | 396 kts | 146° |
| 2026-05-08 18:52 | 47.88312 | 11.59948 | 18963 ft | 393 kts | 146° |
| 2026-05-08 18:52 | 47.86102 | 11.62261 | 18492 ft | 391 kts | 146° |
| 2026-05-08 18:53 | 47.83860 | 11.64602 | 17969 ft | 389 kts | 146° |
| 2026-05-08 18:53 | 47.81667 | 11.66893 | 17509 ft | 386 kts | 147° |
| 2026-05-08 18:53 | 47.79471 | 11.69182 | 17041 ft | 383 kts | 147° |
| 2026-05-08 18:53 | 47.77300 | 11.71444 | 16574 ft | 380 kts | 147° |
| 2026-05-08 18:54 | 47.75146 | 11.73684 | 16113 ft | 378 kts | 147° |
| 2026-05-08 18:54 | 47.73003 | 11.75911 | 15682 ft | 375 kts | 147° |
| 2026-05-08 18:54 | 47.70826 | 11.77974 | 15196 ft | 372 kts | 152° |
| 2026-05-08 18:54 | 47.68537 | 11.79706 | 14743 ft | 368 kts | 157° |
| 2026-05-08 18:55 | 47.63831 | 11.82441 | 13839 ft | 363 kts | 161° |
| 2026-05-08 18:55 | 47.61454 | 11.83759 | 13418 ft | 358 kts | 160° |
| 2026-05-08 18:55 | 47.59158 | 11.85037 | 13092 ft | 351 kts | 160° |
| 2026-05-08 18:56 | 47.56891 | 11.86303 | 12693 ft | 346 kts | 160° |
| 2026-05-08 18:56 | 47.54646 | 11.87568 | 12309 ft | 341 kts | 160° |
| 2026-05-08 18:56 | 47.52463 | 11.88798 | 12011 ft | 333 kts | 160° |
| 2026-05-08 18:56 | 47.50338 | 11.90002 | 11871 ft | 322 kts | 160° |
| 2026-05-08 18:57 | 47.48296 | 11.91149 | 11777 ft | 308 kts | 160° |
| 2026-05-08 18:57 | 47.46967 | 11.91893 | 11734 ft | 300 kts | 160° |
| 2026-05-08 18:57 | 47.44407 | 11.93323 | 11636 ft | 291 kts | 160° |
| 2026-05-08 18:57 | 47.42519 | 11.94351 | 11550 ft | 289 kts | 163° |
| 2026-05-08 18:58 | 47.40572 | 11.94621 | 11218 ft | 288 kts | 191° |
| 2026-05-08 18:58 | 47.38782 | 11.93333 | 10761 ft | 291 kts | 223° |
| 2026-05-08 18:58 | 47.37713 | 11.90846 | 10394 ft | 289 kts | 253° |
| 2026-05-08 18:58 | 47.37525 | 11.87910 | 10348 ft | 292 kts | 278° |
| 2026-05-08 18:59 | 47.38244 | 11.85108 | 10323 ft | 294 kts | 306° |
| 2026-05-08 18:59 | 47.39743 | 11.83132 | 10329 ft | 293 kts | 334° |
| 2026-05-08 18:59 | 47.41714 | 11.82422 | 10325 ft | 292 kts | 1° |
| 2026-05-08 18:59 | 47.43724 | 11.82637 | 10336 ft | 293 kts | 5° |
| 2026-05-08 19:00 | 47.45088 | 11.82807 | 10306 ft | 294 kts | 7° |
| 2026-05-08 19:00 | 47.47531 | 11.84247 | 10015 ft | 288 kts | 45° |
| 2026-05-08 19:00 | 47.48557 | 11.86771 | 9898 ft | 289 kts | 76° |
| 2026-05-08 19:00 | 47.48678 | 11.89709 | 9768 ft | 291 kts | 100° |
| 2026-05-08 19:01 | 47.47993 | 11.92492 | 9635 ft | 286 kts | 123° |
| 2026-05-08 19:01 | 47.46665 | 11.94536 | 9591 ft | 270 kts | 147° |
| 2026-05-08 19:01 | 47.44980 | 11.95582 | 9601 ft | 261 kts | 169° |
| 2026-05-08 19:01 | 47.43163 | 11.95578 | 9610 ft | 264 kts | 192° |
| 2026-05-08 19:02 | 47.41487 | 11.94516 | 9626 ft | 266 kts | 214° |
| 2026-05-08 19:02 | 47.40007 | 11.92878 | 9639 ft | 266 kts | 217° |
| 2026-05-08 19:02 | 47.38543 | 11.91202 | 9632 ft | 265 kts | 217° |
| 2026-05-08 19:02 | 47.37094 | 11.89560 | 9617 ft | 261 kts | 217° |
| 2026-05-08 19:03 | 47.35674 | 11.87965 | 9605 ft | 247 kts | 216° |
| 2026-05-08 19:03 | 47.34329 | 11.86441 | 9664 ft | 239 kts | 219° |
| 2026-05-08 19:03 | 47.33338 | 11.84651 | 9658 ft | 220 kts | 242° |
| 2026-05-08 19:03 | 47.32837 | 11.82631 | 9603 ft | 201 kts | 256° |
| 2026-05-08 19:04 | 47.32597 | 11.80676 | 9485 ft | 187 kts | 261° |
| 2026-05-08 19:04 | 47.32404 | 11.78799 | 9230 ft | 185 kts | 261° |
| 2026-05-08 19:04 | 47.32196 | 11.76959 | 8918 ft | 183 kts | 260° |
| 2026-05-08 19:04 | 47.31963 | 11.75112 | 8602 ft | 183 kts | 259° |
| 2026-05-08 19:05 | 47.31714 | 11.73301 | 8284 ft | 182 kts | 258° |
| 2026-05-08 19:05 | 47.31450 | 11.71481 | 7972 ft | 181 kts | 258° |
| 2026-05-08 19:05 | 47.31177 | 11.69665 | 7680 ft | 181 kts | 257° |
| 2026-05-08 19:05 | 47.30902 | 11.67860 | 7379 ft | 180 kts | 257° |
| 2026-05-08 19:06 | 47.30629 | 11.66081 | 7093 ft | 180 kts | 257° |
| 2026-05-08 19:06 | 47.30352 | 11.64279 | 6797 ft | 180 kts | 258° |
| 2026-05-08 19:06 | 47.30080 | 11.62505 | 6502 ft | 179 kts | 258° |
| 2026-05-08 19:06 | 47.29811 | 11.60735 | 6198 ft | 178 kts | 258° |
| 2026-05-08 19:07 | 47.29539 | 11.58940 | 5925 ft | 179 kts | 258° |
| 2026-05-08 19:07 | 47.29273 | 11.57170 | 5615 ft | 177 kts | 258° |
| 2026-05-08 19:07 | 47.29010 | 11.55413 | 5329 ft | 177 kts | 258° |
| 2026-05-08 19:07 | 47.28746 | 11.53647 | 5034 ft | 177 kts | 258° |
| 2026-05-08 19:08 | 47.28482 | 11.51870 | 4735 ft | 177 kts | 258° |
| 2026-05-08 19:08 | 47.28220 | 11.50108 | 4436 ft | 176 kts | 258° |
| 2026-05-08 19:08 | 47.27963 | 11.48368 | 4149 ft | 176 kts | 259° |
| 2026-05-08 19:08 | 47.27702 | 11.46603 | 3917 ft | 175 kts | 259° |
| 2026-05-08 19:09 | 47.27433 | 11.44855 | 3845 ft | 176 kts | 254° |
| 2026-05-08 19:09 | 47.26894 | 11.43244 | 3816 ft | 176 kts | 238° |
| 2026-05-08 19:09 | 47.26214 | 11.41754 | 3802 ft | 176 kts | 235° |
| 2026-05-08 19:09 | 47.25509 | 11.40267 | 3795 ft | 176 kts | 235° |
| 2026-05-08 19:10 | 47.24802 | 11.38791 | 3794 ft | 176 kts | 235° |
| 2026-05-08 19:10 | 47.24097 | 11.37321 | 3789 ft | 175 kts | 235° |
| 2026-05-08 19:10 | 47.23592 | 11.35689 | 3783 ft | 175 kts | 260° |
| 2026-05-08 19:10 | 47.23465 | 11.33967 | 3781 ft | 165 kts | 268° |
| 2026-05-08 19:11 | 47.23418 | 11.32290 | 3776 ft | 161 kts | 269° |
| 2026-05-08 19:11 | 47.23382 | 11.30651 | 3784 ft | 161 kts | 269° |
| 2026-05-08 19:11 | 47.23348 | 11.28990 | 3787 ft | 161 kts | 269° |
| 2026-05-08 19:11 | 47.23323 | 11.27356 | 3796 ft | 160 kts | 275° |
| 2026-05-08 19:12 | 47.23737 | 11.25885 | 3716 ft | 158 kts | 318° |
| 2026-05-08 19:12 | 47.24688 | 11.25208 | 3485 ft | 151 kts | 6° |
| 2026-05-08 19:12 | 47.25525 | 11.25989 | 3235 ft | 150 kts | 64° |
| 2026-05-08 19:12 | 47.25590 | 11.27485 | 2887 ft | 153 kts | 97° |
| 2026-05-08 19:13 | 47.25491 | 11.29020 | 2572 ft | 150 kts | 88° |
| 2026-05-08 19:13 | 47.25592 | 11.30538 | 2311 ft | 148 kts | 80° |
| 2026-05-08 19:13 | 47.25763 | 11.32024 | 2129 ft | 145 kts | 83° |
| 2026-05-08 19:13 | 47.25921 | 11.33476 | 1951 ft | 141 kts | 82° |
| 2026-05-08 19:14 | 47.26056 | 11.34727 | 1918 ft | 91 kts | 80° |
| 2026-05-08 19:14 | 47.26102 | 11.35237 | 1915 ft | 16 kts | 120° |
| 2026-05-08 19:14 | 47.26084 | 11.35248 | 1914 ft | 0 kts | 181° |
| 2026-05-08 19:14 | 47.26070 | 11.35252 | 1915 ft | 3 kts | 168° |
| 2026-05-08 19:15 | 47.26028 | 11.35265 | 1914 ft | 8 kts | 168° |
| 2026-05-08 19:15 | 47.25950 | 11.35284 | 1914 ft | 13 kts | 171° |
| 2026-05-08 19:15 | 47.25896 | 11.35250 | 1914 ft | 7 kts | 258° |
| 2026-05-08 19:15 | 47.25889 | 11.35168 | 1914 ft | 8 kts | 262° |
| 2026-05-08 19:16 | 47.25880 | 11.35088 | 1915 ft | 5 kts | 261° |
| 2026-05-08 19:16 | 47.25858 | 11.35056 | 1915 ft | 3 kts | 175° |
| 2026-05-08 19:16 | 47.25835 | 11.35055 | 1914 ft | 2 kts | 172° |
| 2026-05-08 19:16 | 47.25825 | 11.35057 | 1914 ft | 0 kts | 172° |